createdAt,value
2017-12-19T00:00:36.753Z,76.30
2017-12-19T00:03:05.078Z,76.00
2017-12-19T00:05:33.006Z,76.00
2017-12-19T00:08:01.657Z,75.90
2017-12-19T00:10:29.099Z,75.90
2017-12-19T00:12:56.573Z,75.70
2017-12-19T00:15:24.434Z,75.70
2017-12-19T00:17:51.929Z,75.80
2017-12-19T00:20:20.150Z,75.70
2017-12-19T00:22:47.660Z,75.70
2017-12-19T00:25:16.350Z,75.70
2017-12-19T00:27:44.375Z,75.60
2017-12-19T00:30:12.516Z,75.60
2017-12-19T00:32:40.223Z,75.70
2017-12-19T00:35:09.171Z,75.60
2017-12-19T00:37:36.615Z,75.60
2017-12-19T00:40:04.047Z,75.60
2017-12-19T00:42:32.282Z,75.60
2017-12-19T00:45:00.148Z,75.70
2017-12-19T00:47:28.121Z,75.90
2017-12-19T00:49:55.570Z,75.70
2017-12-19T00:52:23.108Z,75.60
2017-12-19T00:54:50.563Z,75.60
2017-12-19T00:57:18.470Z,75.60
2017-12-19T00:59:45.912Z,75.90
2017-12-19T01:02:13.793Z,76.10
2017-12-19T01:04:41.237Z,76.10
2017-12-19T01:07:09.217Z,75.80
2017-12-19T01:09:36.997Z,75.60
2017-12-19T01:12:05.652Z,76.40
2017-12-19T01:14:33.698Z,75.80
2017-12-19T01:17:01.357Z,75.80
2017-12-19T01:19:28.813Z,76.00
2017-12-19T01:21:56.277Z,75.90
2017-12-19T01:24:24.368Z,75.90
2017-12-19T01:26:51.824Z,75.80
2017-12-19T01:29:19.968Z,75.90
2017-12-19T01:31:47.968Z,75.90
2017-12-19T01:34:15.421Z,75.90
2017-12-19T01:36:42.885Z,75.70
2017-12-19T01:39:10.331Z,75.50
2017-12-19T01:41:37.812Z,75.40
2017-12-19T01:44:05.362Z,75.40
2017-12-19T01:46:32.837Z,75.60
2017-12-19T01:49:01.404Z,75.10
2017-12-19T01:51:28.849Z,75.10
2017-12-19T01:53:56.375Z,75.10
2017-12-19T01:56:23.820Z,75.30
2017-12-19T01:58:51.321Z,75.30
2017-12-19T02:01:19.196Z,75.20
2017-12-19T02:03:46.645Z,75.30
2017-12-19T02:06:14.579Z,75.10
2017-12-19T02:08:42.550Z,75.20
2017-12-19T02:11:10.105Z,75.50
2017-12-19T02:13:37.972Z,75.40
2017-12-19T02:16:05.532Z,75.40
2017-12-19T02:18:32.986Z,75.60
2017-12-19T02:21:00.548Z,75.70
2017-12-19T02:23:28.002Z,75.90
2017-12-19T02:25:56.129Z,75.90
2017-12-19T02:28:23.569Z,75.70
2017-12-19T02:30:51.426Z,75.60
2017-12-19T02:33:18.865Z,75.60
2017-12-19T02:35:46.323Z,75.90
2017-12-19T02:38:13.826Z,76.00
2017-12-19T02:40:41.771Z,75.80
2017-12-19T02:43:21.192Z,75.90
2017-12-19T02:45:51.045Z,76.10
2017-12-19T02:48:18.995Z,76.20
2017-12-19T02:50:46.439Z,76.30
2017-12-19T02:53:13.972Z,76.50
2017-12-19T02:55:41.431Z,76.60
2017-12-19T02:58:08.997Z,76.80
2017-12-19T03:00:36.449Z,76.30
2017-12-19T03:03:04.344Z,76.10
2017-12-19T03:05:32.219Z,76.40
2017-12-19T03:07:59.990Z,75.70
2017-12-19T03:10:27.624Z,75.80
2017-12-19T03:12:55.498Z,76.00
2017-12-19T03:15:23.363Z,76.30
2017-12-19T03:17:50.806Z,76.10
2017-12-19T03:20:18.699Z,76.10
2017-12-19T03:22:47.649Z,76.20
2017-12-19T03:25:15.551Z,76.20
2017-12-19T03:27:43.013Z,76.00
2017-12-19T03:30:10.967Z,76.30
2017-12-19T03:32:38.436Z,76.40
2017-12-19T03:35:05.993Z,76.60
2017-12-19T03:37:33.454Z,76.90
2017-12-19T03:40:00.905Z,76.80
2017-12-19T03:42:28.389Z,76.50
2017-12-19T03:44:56.802Z,76.60
2017-12-19T03:47:24.801Z,76.60
2017-12-19T03:49:52.265Z,76.70
2017-12-19T03:52:19.744Z,76.80
2017-12-19T03:54:48.437Z,76.60
2017-12-19T03:57:16.642Z,77.00
2017-12-19T03:59:44.204Z,76.90
2017-12-19T04:02:12.201Z,77.00
2017-12-19T04:04:40.269Z,77.00
2017-12-19T04:07:07.725Z,77.00
2017-12-19T04:09:36.690Z,77.00
2017-12-19T04:12:04.149Z,77.00
2017-12-19T04:14:31.955Z,77.30
2017-12-19T04:17:00.229Z,77.30
2017-12-19T04:19:29.722Z,77.40
2017-12-19T04:21:57.165Z,77.40
2017-12-19T04:24:25.081Z,77.50
2017-12-19T04:26:53.293Z,77.10
2017-12-19T04:29:21.181Z,77.10
2017-12-19T04:31:48.620Z,77.40
2017-12-19T04:34:16.092Z,77.50
2017-12-19T04:36:43.541Z,77.60
2017-12-19T04:39:11.013Z,77.50
2017-12-19T04:41:38.457Z,77.30
2017-12-19T04:44:06.451Z,77.30
2017-12-19T04:46:34.413Z,77.30
2017-12-19T04:49:02.383Z,77.30
2017-12-19T04:51:29.825Z,77.30
2017-12-19T04:53:57.294Z,77.30
2017-12-19T04:59:08.378Z,77.50
2017-12-19T05:01:36.283Z,77.50
2017-12-19T05:04:04.624Z,77.30
2017-12-19T05:06:32.524Z,77.30
2017-12-19T05:09:01.038Z,77.00
2017-12-19T05:11:28.806Z,77.00
2017-12-19T05:13:56.799Z,77.00
2017-12-19T05:16:24.250Z,77.10
2017-12-19T05:18:51.696Z,77.20
2017-12-19T05:21:19.243Z,77.20
2017-12-19T05:23:46.701Z,77.40
2017-12-19T05:26:14.668Z,77.60
2017-12-19T05:28:42.879Z,77.80
2017-12-19T05:31:10.435Z,78.00
2017-12-19T05:33:37.872Z,78.20
2017-12-19T05:36:05.337Z,78.50
2017-12-19T05:38:32.786Z,78.40
2017-12-19T05:41:00.337Z,78.50
2017-12-19T05:43:27.773Z,78.50
2017-12-19T05:45:55.294Z,78.60
2017-12-19T05:48:23.969Z,79.30
2017-12-19T05:50:51.971Z,78.70
2017-12-19T05:53:19.450Z,78.70
2017-12-19T05:55:46.909Z,78.80
2017-12-19T05:58:14.493Z,79.00
2017-12-19T06:00:41.969Z,79.20
2017-12-19T06:03:11.840Z,79.10
2017-12-19T06:05:39.293Z,79.00
2017-12-19T06:08:07.143Z,78.90
2017-12-19T06:10:35.406Z,78.90
2017-12-19T06:13:03.608Z,79.10
2017-12-19T06:15:31.717Z,79.00
2017-12-19T06:17:59.698Z,79.20
2017-12-19T06:20:27.123Z,79.40
2017-12-19T06:22:54.561Z,79.60
2017-12-19T06:25:22.372Z,79.70
2017-12-19T06:27:49.809Z,79.70
2017-12-19T06:30:17.922Z,80.30
2017-12-19T06:32:46.232Z,79.90
2017-12-19T06:35:13.679Z,79.80
2017-12-19T06:37:41.137Z,79.80
2017-12-19T06:40:08.617Z,79.90
2017-12-19T06:42:36.160Z,79.90
2017-12-19T06:45:03.594Z,79.90
2017-12-19T06:47:32.429Z,80.30
2017-12-19T06:49:59.964Z,80.10
2017-12-19T06:52:27.495Z,80.20
2017-12-19T06:54:54.971Z,80.10
2017-12-19T06:57:22.844Z,80.10
2017-12-19T06:59:50.914Z,80.20
2017-12-19T07:02:18.929Z,79.90
2017-12-19T07:04:46.585Z,80.00
2017-12-19T07:07:14.134Z,79.80
2017-12-19T07:09:41.576Z,79.50
2017-12-19T07:12:09.090Z,79.60
2017-12-19T07:14:38.053Z,79.30
2017-12-19T07:17:05.716Z,79.30
2017-12-19T07:19:33.164Z,79.20
2017-12-19T07:22:00.719Z,79.30
2017-12-19T07:24:28.690Z,79.60
2017-12-19T07:26:56.228Z,80.00
2017-12-19T07:29:24.185Z,80.30
2017-12-19T07:31:51.672Z,80.30
2017-12-19T07:34:19.105Z,80.50
2017-12-19T07:36:46.785Z,80.50
2017-12-19T07:39:14.312Z,80.50
2017-12-19T07:41:42.105Z,80.50
2017-12-19T07:44:09.627Z,80.70
2017-12-19T07:46:37.454Z,80.90
2017-12-19T07:49:05.402Z,81.00
2017-12-19T07:51:33.273Z,81.50
2017-12-19T07:54:01.129Z,81.20
2017-12-19T07:56:28.597Z,81.00
2017-12-19T07:58:56.221Z,81.10
2017-12-19T08:01:23.673Z,81.10
2017-12-19T08:03:51.489Z,81.10
2017-12-19T08:06:18.929Z,81.20
2017-12-19T08:08:46.404Z,80.80
2017-12-19T08:11:14.638Z,82.00
2017-12-19T08:13:42.676Z,81.40
2017-12-19T08:16:10.236Z,81.70
2017-12-19T08:18:38.023Z,81.70
2017-12-19T08:21:06.246Z,81.40
2017-12-19T08:23:33.705Z,81.40
2017-12-19T08:26:01.442Z,81.30
2017-12-19T08:28:28.974Z,81.40
2017-12-19T08:30:56.796Z,81.50
2017-12-19T08:33:25.110Z,82.00
2017-12-19T08:35:52.918Z,82.00
2017-12-19T08:38:21.166Z,81.70
2017-12-19T08:40:48.640Z,81.80
2017-12-19T08:43:16.079Z,82.10
2017-12-19T08:45:43.666Z,82.20
2017-12-19T08:48:11.625Z,82.40
2017-12-19T08:50:39.296Z,82.60
2017-12-19T08:53:07.053Z,82.60
2017-12-19T08:55:34.490Z,82.70
2017-12-19T08:58:02.031Z,82.60
2017-12-19T09:00:29.485Z,82.40
2017-12-19T09:02:57.260Z,82.40
2017-12-19T09:05:24.742Z,82.80
2017-12-19T09:07:52.230Z,82.70
2017-12-19T09:10:20.540Z,82.80
2017-12-19T09:12:48.790Z,83.10
2017-12-19T09:15:17.534Z,83.00
2017-12-19T09:17:44.969Z,83.00
2017-12-19T09:20:12.448Z,82.90
2017-12-19T09:22:39.894Z,83.00
2017-12-19T09:25:07.982Z,83.00
2017-12-19T09:27:35.901Z,83.10
2017-12-19T09:30:03.957Z,83.00
2017-12-19T09:32:31.437Z,83.00
2017-12-19T09:34:58.905Z,83.00
2017-12-19T09:37:26.581Z,82.70
2017-12-19T09:39:54.807Z,82.60
2017-12-19T09:42:23.210Z,82.80
2017-12-19T09:44:50.778Z,82.80
2017-12-19T09:47:18.735Z,83.10
2017-12-19T09:49:46.575Z,83.10
2017-12-19T09:52:14.821Z,82.70
2017-12-19T09:54:42.265Z,82.80
2017-12-19T09:57:09.922Z,82.50
2017-12-19T09:59:37.370Z,82.50
2017-12-19T10:02:04.898Z,82.70
2017-12-19T10:04:32.931Z,83.00
2017-12-19T10:07:00.475Z,83.10
2017-12-19T10:09:27.932Z,82.80
2017-12-19T10:11:56.943Z,82.60
2017-12-19T10:14:25.774Z,82.80
2017-12-19T10:16:53.771Z,82.80
2017-12-19T10:19:21.211Z,82.60
2017-12-19T10:21:48.818Z,83.00
2017-12-19T10:24:17.547Z,83.00
2017-12-19T10:26:44.986Z,82.80
2017-12-19T10:29:14.578Z,83.00
2017-12-19T10:31:42.792Z,83.30
2017-12-19T10:34:10.290Z,83.30
2017-12-19T10:36:38.345Z,83.40
2017-12-19T10:39:05.866Z,83.30
2017-12-19T10:41:33.324Z,83.30
2017-12-19T10:44:00.865Z,83.40
2017-12-19T10:46:29.069Z,83.30
2017-12-19T10:48:57.841Z,83.70
2017-12-19T10:51:25.316Z,83.10
2017-12-19T10:53:52.862Z,83.00
2017-12-19T10:56:20.314Z,83.20
2017-12-19T10:58:47.786Z,84.00
2017-12-19T11:01:15.360Z,83.50
2017-12-19T11:03:43.461Z,83.50
2017-12-19T11:06:11.809Z,83.70
2017-12-19T11:08:39.288Z,83.60
2017-12-19T11:11:06.795Z,83.30
2017-12-19T11:13:35.060Z,83.30
2017-12-19T11:16:02.544Z,83.50
2017-12-19T11:18:30.640Z,82.90
2017-12-19T11:20:58.124Z,83.20
2017-12-19T11:23:26.338Z,83.70
2017-12-19T11:25:54.231Z,83.70
2017-12-19T11:28:21.674Z,83.80
2017-12-19T11:30:49.448Z,84.00
2017-12-19T11:33:16.897Z,84.00
2017-12-19T11:35:44.738Z,83.50
2017-12-19T11:38:12.250Z,83.40
2017-12-19T11:40:39.687Z,83.60
2017-12-19T11:43:07.203Z,83.60
2017-12-19T11:45:34.766Z,83.50
2017-12-19T11:48:02.571Z,83.30
2017-12-19T11:50:30.021Z,83.20
2017-12-19T11:52:57.528Z,83.10
2017-12-19T11:55:25.073Z,83.20
2017-12-19T11:57:53.290Z,83.40
2017-12-19T12:00:21.099Z,83.40
2017-12-19T12:02:48.544Z,83.00
2017-12-19T12:05:16.414Z,82.40
2017-12-19T12:07:43.859Z,82.90
2017-12-19T12:10:11.317Z,83.10
2017-12-19T12:12:39.244Z,83.40
2017-12-19T12:15:07.055Z,83.30
2017-12-19T12:17:34.571Z,83.10
2017-12-19T12:20:02.073Z,82.90
2017-12-19T12:22:29.580Z,83.40
2017-12-19T12:24:57.594Z,83.80
2017-12-19T12:27:25.105Z,84.20
2017-12-19T12:29:52.922Z,84.30
2017-12-19T12:32:20.571Z,84.30
2017-12-19T12:34:48.054Z,84.30
2017-12-19T12:37:16.265Z,84.80
2017-12-19T12:39:43.745Z,84.80
2017-12-19T12:42:11.254Z,84.70
2017-12-19T12:44:39.454Z,84.70
2017-12-19T12:47:07.556Z,84.60
2017-12-19T12:49:35.017Z,84.70
2017-12-19T12:52:02.698Z,84.90
2017-12-19T12:54:31.439Z,85.20
2017-12-19T12:56:58.885Z,85.20
2017-12-19T12:59:26.501Z,85.20
2017-12-19T13:01:54.004Z,85.40
2017-12-19T13:04:21.767Z,85.80
2017-12-19T13:06:49.862Z,85.20
2017-12-19T13:09:17.914Z,84.80
2017-12-19T13:11:45.468Z,84.90
2017-12-19T13:14:13.490Z,85.00
2017-12-19T13:16:40.921Z,85.00
2017-12-19T13:19:08.405Z,85.10
2017-12-19T13:21:35.849Z,85.00
2017-12-19T13:24:03.364Z,84.90
2017-12-19T13:26:32.562Z,84.90
2017-12-19T13:29:00.623Z,85.00
2017-12-19T13:31:28.101Z,85.00
2017-12-19T13:33:55.544Z,85.00
2017-12-19T13:36:23.016Z,84.70
2017-12-19T13:38:50.664Z,84.80
2017-12-19T13:41:18.122Z,84.70
2017-12-19T13:43:45.566Z,84.80
2017-12-19T13:46:13.038Z,84.90
2017-12-19T13:48:41.033Z,84.90
2017-12-19T13:51:08.697Z,84.80
2017-12-19T13:53:36.143Z,84.80
2017-12-19T13:56:03.713Z,84.80
2017-12-19T13:58:31.160Z,84.70
2017-12-19T14:00:58.861Z,84.40
2017-12-19T14:03:28.271Z,84.30
2017-12-19T14:05:57.019Z,84.20
2017-12-19T14:08:24.988Z,84.20
2017-12-19T14:10:52.458Z,84.20
2017-12-19T14:13:19.934Z,84.30
2017-12-19T14:15:48.945Z,84.20
2017-12-19T14:18:17.167Z,83.90
2017-12-19T14:20:44.621Z,83.90
2017-12-19T14:23:12.133Z,83.80
2017-12-19T14:25:40.118Z,83.80
2017-12-19T14:28:07.675Z,83.60
2017-12-19T14:30:35.392Z,83.60
2017-12-19T14:33:03.660Z,83.50
2017-12-19T14:35:31.108Z,83.50
2017-12-19T14:37:59.037Z,84.10
2017-12-19T14:40:26.499Z,83.50
2017-12-19T14:42:53.952Z,83.40
2017-12-19T14:45:21.436Z,83.10
2017-12-19T14:47:49.204Z,83.10
2017-12-19T14:50:16.684Z,83.00
2017-12-19T14:52:44.730Z,83.00
2017-12-19T14:55:12.700Z,83.20
2017-12-19T14:57:40.158Z,83.40
2017-12-19T15:00:07.636Z,83.20
2017-12-19T15:02:35.211Z,83.00
2017-12-19T15:05:03.860Z,83.00
2017-12-19T15:07:31.308Z,82.90
2017-12-19T15:09:58.750Z,82.90
2017-12-19T15:12:26.329Z,82.80
2017-12-19T15:14:54.192Z,82.70
2017-12-19T15:17:21.656Z,82.60
2017-12-19T15:19:49.893Z,82.60
2017-12-19T15:22:17.381Z,82.70
2017-12-19T15:24:45.174Z,82.70
2017-12-19T15:27:13.921Z,83.20
2017-12-19T15:29:41.794Z,82.60
2017-12-19T15:32:09.238Z,82.60
2017-12-19T15:34:37.293Z,82.50
2017-12-19T15:37:04.872Z,82.40
2017-12-19T15:39:32.393Z,82.50
2017-12-19T15:42:00.635Z,82.60
2017-12-19T15:44:28.385Z,82.50
2017-12-19T15:46:55.836Z,82.60
2017-12-19T15:49:23.711Z,82.50
2017-12-19T15:51:51.469Z,82.30
2017-12-19T15:54:18.908Z,82.40
2017-12-19T15:56:46.387Z,82.10
2017-12-19T15:59:14.030Z,81.90
2017-12-19T16:01:42.041Z,82.00
2017-12-19T16:04:09.985Z,82.10
2017-12-19T16:06:37.441Z,82.20
2017-12-19T16:09:05.096Z,82.20
2017-12-19T16:11:32.561Z,82.20
2017-12-19T16:14:01.178Z,82.40
2017-12-19T16:16:29.377Z,82.40
2017-12-19T16:18:57.308Z,82.40
2017-12-19T16:21:24.942Z,82.40
2017-12-19T16:23:52.412Z,83.00
2017-12-19T16:26:20.182Z,82.30
2017-12-19T16:28:48.340Z,82.30
2017-12-19T16:31:15.786Z,82.40
2017-12-19T16:33:43.252Z,82.30
2017-12-19T16:36:11.183Z,82.30
2017-12-19T16:38:39.154Z,82.30
2017-12-19T16:41:06.585Z,82.40
2017-12-19T16:43:34.385Z,82.20
2017-12-19T16:46:01.829Z,82.20
2017-12-19T16:48:29.904Z,83.40
2017-12-19T16:50:57.351Z,82.60
2017-12-19T16:53:24.847Z,82.60
2017-12-19T16:55:52.355Z,82.90
2017-12-19T16:58:19.826Z,82.30
2017-12-19T17:00:47.329Z,82.30
2017-12-19T17:03:15.666Z,82.40
2017-12-19T17:05:44.585Z,82.20
2017-12-19T17:08:12.119Z,82.20
2017-12-19T17:10:39.615Z,82.20
2017-12-19T17:13:07.179Z,82.40
2017-12-19T17:15:35.233Z,82.30
2017-12-19T17:18:02.697Z,82.40
2017-12-19T17:20:30.316Z,82.50
2017-12-19T17:22:57.754Z,82.50
2017-12-19T17:25:25.575Z,82.70
2017-12-19T17:27:53.038Z,83.00
2017-12-19T17:30:20.997Z,83.20
2017-12-19T17:32:48.483Z,83.40
2017-12-19T17:35:16.912Z,83.50
2017-12-19T17:37:44.903Z,83.50
2017-12-19T17:40:12.423Z,83.40
2017-12-19T17:42:40.184Z,83.50
2017-12-19T17:45:07.745Z,83.40
2017-12-19T17:47:35.748Z,83.50
2017-12-19T17:50:03.888Z,83.50
2017-12-19T17:52:31.335Z,83.60
2017-12-19T17:54:58.802Z,83.60
2017-12-19T17:57:26.270Z,83.80
2017-12-19T17:59:53.752Z,83.90
2017-12-19T18:02:21.844Z,83.70
2017-12-19T18:04:50.745Z,83.70
2017-12-19T18:07:18.961Z,83.60
2017-12-19T18:09:46.437Z,83.60
2017-12-19T18:12:13.897Z,83.50
2017-12-19T18:14:41.701Z,83.50
2017-12-19T18:17:09.189Z,83.70
2017-12-19T18:19:36.718Z,83.80
2017-12-19T18:22:04.332Z,84.00
2017-12-19T18:24:32.374Z,83.90
2017-12-19T18:26:59.845Z,83.70
2017-12-19T18:29:27.734Z,83.60
2017-12-19T18:31:55.598Z,83.80
2017-12-19T18:34:23.470Z,83.70
2017-12-19T18:36:51.447Z,83.70
2017-12-19T18:39:19.358Z,83.80
2017-12-19T18:41:46.832Z,84.50
2017-12-19T18:44:14.331Z,84.10
2017-12-19T18:46:41.869Z,84.20
2017-12-19T18:49:09.764Z,84.20
2017-12-19T18:51:37.226Z,84.30
2017-12-19T18:54:05.943Z,84.30
2017-12-19T18:56:33.402Z,84.20
2017-12-19T18:59:00.883Z,84.00
2017-12-19T19:01:28.362Z,83.90
2017-12-19T19:03:55.982Z,84.00
2017-12-19T19:06:23.882Z,84.20
2017-12-19T19:08:51.646Z,84.20
2017-12-19T19:11:19.121Z,84.40
2017-12-19T19:13:47.850Z,84.30
2017-12-19T19:16:15.495Z,84.30
2017-12-19T19:18:43.087Z,84.50
2017-12-19T19:21:10.934Z,84.20
2017-12-19T19:23:38.495Z,84.10
2017-12-19T19:26:06.606Z,84.10
2017-12-19T19:28:34.283Z,84.20
2017-12-19T19:31:02.122Z,84.20
2017-12-19T19:33:29.709Z,84.20
2017-12-19T19:35:57.827Z,83.80
2017-12-19T19:38:25.451Z,83.80
2017-12-19T19:40:53.927Z,83.70
2017-12-19T19:43:21.776Z,83.70
2017-12-19T19:45:50.723Z,84.00
2017-12-19T19:48:18.669Z,84.00
2017-12-19T19:50:47.011Z,84.10
2017-12-19T19:53:15.035Z,84.10
2017-12-19T19:55:42.572Z,84.10
2017-12-19T19:58:10.893Z,84.20
2017-12-19T20:00:38.439Z,84.20
2017-12-19T20:03:06.355Z,84.30
2017-12-19T20:05:35.331Z,84.20
2017-12-19T20:08:04.418Z,84.30
2017-12-19T20:10:32.247Z,84.20
2017-12-19T20:12:59.856Z,84.10
2017-12-19T20:15:28.336Z,83.90
2017-12-19T20:17:56.971Z,83.80
2017-12-19T20:20:25.105Z,83.70
2017-12-19T20:22:53.400Z,83.80
2017-12-19T20:25:21.699Z,83.70
2017-12-19T20:27:49.227Z,83.40
2017-12-19T20:30:18.043Z,83.20
2017-12-19T20:32:45.713Z,83.20
2017-12-19T20:35:13.516Z,83.40
2017-12-19T20:37:41.259Z,83.20
2017-12-19T20:40:09.048Z,83.20
2017-12-19T20:42:36.739Z,83.20
2017-12-19T20:45:04.452Z,83.10
2017-12-19T20:47:32.518Z,84.00
2017-12-19T20:50:00.970Z,83.30
2017-12-19T20:52:28.515Z,83.80
2017-12-19T20:54:56.168Z,83.10
2017-12-19T20:57:24.707Z,83.40
2017-12-19T20:59:52.205Z,83.40
2017-12-19T21:02:19.736Z,83.40
2017-12-19T21:04:47.449Z,83.30
2017-12-19T21:07:15.297Z,83.50
2017-12-19T21:09:42.874Z,83.60
2017-12-19T21:12:10.327Z,83.60
2017-12-19T21:14:40.671Z,83.40
2017-12-19T21:17:10.257Z,83.50
2017-12-19T21:19:38.472Z,83.50
2017-12-19T21:22:05.916Z,83.60
2017-12-19T21:24:33.898Z,83.40
2017-12-19T21:27:01.355Z,83.60
2017-12-19T21:29:29.333Z,83.40
2017-12-19T21:31:56.836Z,83.60
2017-12-19T21:34:24.351Z,83.80
2017-12-19T21:36:52.603Z,84.20
2017-12-19T21:39:20.049Z,84.30
2017-12-19T21:41:47.734Z,84.50
2017-12-19T21:44:15.250Z,84.50
2017-12-19T21:46:42.709Z,84.40
2017-12-19T21:49:10.715Z,84.30
2017-12-19T21:51:38.234Z,84.30
2017-12-19T21:54:05.688Z,84.20
2017-12-19T21:56:33.175Z,84.10
2017-12-19T21:59:00.709Z,84.20
2017-12-19T22:01:28.143Z,84.30
2017-12-19T22:03:55.734Z,84.40
2017-12-19T22:06:23.522Z,84.50
2017-12-19T22:08:51.400Z,84.40
2017-12-19T22:11:18.848Z,84.60
2017-12-19T22:13:47.023Z,84.60
2017-12-19T22:16:14.497Z,84.50
2017-12-19T22:18:42.815Z,84.30
2017-12-19T22:21:10.511Z,84.30
2017-12-19T22:23:37.960Z,84.50
2017-12-19T22:26:05.874Z,84.50
2017-12-19T22:28:34.085Z,84.40
2017-12-19T22:31:01.805Z,84.40
2017-12-19T22:33:30.036Z,83.80
2017-12-19T22:35:57.484Z,83.70
2017-12-19T22:38:25.050Z,83.90
2017-12-19T22:40:52.545Z,83.70
2017-12-19T22:43:20.863Z,83.70
2017-12-19T22:45:48.363Z,83.60
2017-12-19T22:48:16.183Z,83.50
2017-12-19T22:50:43.660Z,83.40
2017-12-19T22:53:11.112Z,83.50
2017-12-19T22:55:38.658Z,83.60
2017-12-19T22:58:06.192Z,83.50
2017-12-19T23:00:33.650Z,83.40
2017-12-19T23:03:01.146Z,83.50
2017-12-19T23:05:29.151Z,83.40
2017-12-19T23:07:57.267Z,83.40
2017-12-19T23:10:24.737Z,83.40
2017-12-19T23:12:52.281Z,83.50
2017-12-19T23:15:20.353Z,83.50
2017-12-19T23:17:48.373Z,83.80
2017-12-19T23:20:16.236Z,84.00
2017-12-19T23:22:43.688Z,84.30
2017-12-19T23:25:11.463Z,84.10
2017-12-19T23:27:39.261Z,84.30
2017-12-19T23:30:07.008Z,84.50
2017-12-19T23:32:35.233Z,84.70
2017-12-19T23:35:02.917Z,84.00
2017-12-19T23:37:30.364Z,84.10
2017-12-19T23:39:57.969Z,83.80
2017-12-19T23:42:25.427Z,83.90
2017-12-19T23:44:53.748Z,83.70
2017-12-19T23:47:21.969Z,83.70
2017-12-19T23:49:50.306Z,83.90
2017-12-19T23:52:17.830Z,83.90
2017-12-19T23:54:45.903Z,83.70
2017-12-19T23:57:13.358Z,83.80
2017-12-19T23:59:42.069Z,83.90
